• Join FlightAware (Why Join?)
  • Login
  • US Flag 
11:40PM EST


 

Airport Tracker/Info


-or-


 

Live Flight TrackerFlight Track Log ✈ SKW5594 ✈ 19-Jul-2013 ✈ KDEN - KGPI

Flight Track Log - Related Links

Times and Time Zones

All times are in EDT time to prevent confusion due to time zone crossing. See the SKW5594 flight status page for this flight to view local times or setup timezone preferences in your user account.

Time Position Orientation Groundspeed Altitude Reporting Facility
EDT Latitude Longitude Course Direction KTS MPH feet Rate Location/Type
01:27PM 39.9333 -104.6833 346° North 208 239 7,000  Level Denver TRACON
01:27PM 39.9636 -104.6817 North 225 259 7,900 1,500 Climbing Denver Center
01:28PM 40.0383 -104.6608 12° North 270 311 9,500 1,740 Climbing Denver Center
01:29PM 40.1654 -104.7713 347° North  Level FlightAware Approximate
01:29PM 40.1300 -104.6772 352° North 304 350 11,500  Level Denver Center
01:30PM 40.2714 -104.8031 347° North  Level FlightAware Approximate
01:31PM 40.3770 -104.8368 346° North  Level FlightAware Approximate
01:31PM 40.2476 -104.7922 347° North  Level Estimated
01:31PM 40.3144 -104.7258 347° North 329 379 15,000  Level Denver Center
01:32PM 40.4824 -104.8719 346° North  Level FlightAware Approximate
01:32PM 40.4058 -104.7500 349° North 333 383 16,800  Level Denver Center
01:33PM 40.5044 -104.7767 348° North 334 384 18,100 1,200 Climbing Denver Center
01:34PM 40.5975 -104.7958 351° North 338 389 19,300 960 Climbing Denver Center
01:35PM 40.6925 -104.8136 352° North 345 397 20,200 840 Climbing Denver Center
01:36PM 40.7958 -104.8522 344° North 348 400 21,100 840 Climbing Denver Center
01:37PM 40.8917 -104.9006 339° North 364 419 22,000 840 Climbing Denver Center
01:38PM 40.9881 -104.9481 340° North 369 425 22,900 900 Climbing Denver Center
01:39PM 41.0917 -104.9986 340° North 372 428 23,900 900 Climbing Denver Center
01:41PM 41.1853 -105.0442 340° North 373 429 24,800 840 Climbing Denver Center
01:42PM 41.2928 -105.0967 340° North 369 425 25,700 720 Climbing Denver Center
01:43PM 41.3856 -105.1458 338° Northwest 373 429 26,300 660 Climbing Denver Center
01:44PM 41.4967 -105.1997 340° North 378 435 27,100 660 Climbing Denver Center
01:45PM 41.5839 -105.2625 332° Northwest 382 440 27,700 540 Climbing Denver Center
01:46PM 41.6733 -105.3636 320° Northwest 379 436 28,300 480 Climbing Denver Center
01:47PM 41.7517 -105.4522 320° Northwest 383 441 28,700 420 Climbing Denver Center
01:48PM 41.8297 -105.5422 319° Northwest 385 443 29,200 480 Climbing Denver Center
01:49PM 41.9233 -105.6508 319° Northwest 393 452 29,800 480 Climbing Denver Center
01:50PM 42.0028 -105.7422 319° Northwest 393 452 30,300 480 Climbing Denver Center
01:51PM 42.0928 -105.8483 319° Northwest 388 447 30,900 480 Climbing Denver Center
01:52PM 42.1686 -105.9369 319° Northwest 381 438 31,300 480 Climbing Denver Center
01:53PM 42.2597 -106.0433 319° Northwest 386 444 31,900 300 Climbing Denver Center
01:54PM 42.3364 -106.1339 319° Northwest 381 438 32,000  Climbing Denver Center
01:55PM 42.4286 -106.2433 319° Northwest 392 451 32,000  Level Denver Center
01:56PM 42.5097 -106.3403 319° Northwest 402 463 32,000  Level Denver Center
01:57PM 42.6047 -106.4533 319° Northwest 407 468 32,000  Level Denver Center
01:58PM 42.6853 -106.5489 319° Northwest 402 463 32,000  Level Denver Center
01:59PM 42.7797 -106.6625 319° Northwest 403 464 32,000  Level Denver Center
02:00PM 42.8608 -106.7594 319° Northwest 404 465 32,000  Level Denver Center
02:01PM 42.9428 -106.8581 319° Northwest 408 470 32,000  Level Denver Center
02:02PM 43.0261 -106.9631 317° Northwest 409 471 32,000  Level Salt Lake Center
02:03PM 43.1103 -107.0647 319° Northwest 405 466 32,000  Level Salt Lake Center
02:04PM 43.1947 -107.1681 318° Northwest 407 468 32,000  Level Salt Lake Center
02:05PM 43.2803 -107.2733 318° Northwest 413 475 32,000  Level Salt Lake Center
02:06PM 43.3633 -107.3775 318° Northwest 408 470 32,000  Level Salt Lake Center
02:07PM 43.4481 -107.4825 318° Northwest 409 471 32,000  Level Salt Lake Center
02:08PM 43.5494 -107.6069 318° Northwest 408 470 32,000  Level Salt Lake Center
02:09PM 43.6331 -107.7117 318° Northwest 407 468 32,000  Level Salt Lake Center
02:10PM 43.7164 -107.8186 317° Northwest 408 470 32,000  Level Salt Lake Center
02:11PM 43.8014 -107.9236 318° Northwest 408 470 32,000  Level Salt Lake Center
02:12PM 43.8856 -108.0311 317° Northwest 411 473 32,000  Level Salt Lake Center
02:13PM 43.9689 -108.1369 318° Northwest 408 470 32,000  Level Salt Lake Center
02:15PM 44.0706 -108.2658 318° Northwest 409 471 32,000  Level Salt Lake Center
02:16PM 44.1542 -108.3736 317° Northwest 410 472 32,000  Level Salt Lake Center
02:17PM 44.2389 -108.4806 318° Northwest 409 471 32,000  Level Salt Lake Center
02:18PM 44.3236 -108.5900 317° Northwest 412 474 32,000  Level Salt Lake Center
02:19PM 44.4081 -108.6981 318° Northwest 411 473 32,000  Level Salt Lake Center
02:20PM 44.4914 -108.8078 317° Northwest 411 473 32,000  Level Salt Lake Center
02:21PM 44.5742 -108.9169 317° Northwest 409 471 32,000  Level Salt Lake Center
02:22PM 44.6736 -109.0483 317° Northwest 407 468 32,000  Level Salt Lake Center
02:23PM 44.7583 -109.1581 317° Northwest 411 473 32,000  Level Salt Lake Center
02:24PM 44.8408 -109.2689 316° Northwest 411 473 32,000  Level Salt Lake Center
02:25PM 44.9231 -109.3800 316° Northwest 409 471 32,000  Level Salt Lake Center
02:26PM 45.0067 -109.4908 317° Northwest 410 472 32,000  Level Salt Lake Center
02:27PM 45.0903 -109.6014 317° Northwest 411 473 32,000  Level Salt Lake Center
02:28PM 45.1919 -109.7361 317° Northwest 416 479 32,000  Level Salt Lake Center
02:29PM 45.2747 -109.8483 316° Northwest 414 476 32,000  Level Salt Lake Center
02:30PM 45.3572 -109.9608 316° Northwest 412 474 32,000  Level Salt Lake Center
02:31PM 45.4383 -110.0725 316° Northwest 408 470 32,000  Level Salt Lake Center
02:32PM 45.5208 -110.1850 316° Northwest 410 472 32,000  Level Salt Lake Center
02:33PM 45.6025 -110.2964 316° Northwest 409 471 32,000  Level Salt Lake Center
02:34PM 45.6994 -110.4328 316° Northwest 408 470 32,000  Level Salt Lake Center
02:35PM 45.7814 -110.5458 316° Northwest 409 471 32,000  Level Salt Lake Center
02:36PM 45.8606 -110.6528 317° Northwest 405 466 32,000  Level Salt Lake Center
02:37PM 45.9414 -110.7658 316° Northwest 410 472 32,000  Level Salt Lake Center
02:38PM 46.0217 -110.8781 316° Northwest 407 468 32,000  Level Salt Lake Center
02:39PM 46.1172 -111.0144 315° West 406 467 32,000  Level Salt Lake Center
02:40PM 46.1961 -111.1281 315° West 406 467 32,000  Level Salt Lake Center
02:41PM 46.2750 -111.2414 315° West 404 465 32,000  Level Salt Lake Center
02:42PM 46.3536 -111.3542 315° West 400 460 32,000  Level Salt Lake Center
02:43PM 46.4444 -111.4828 316° Northwest 400 460 32,000  Level Salt Lake Center
02:45PM 46.5228 -111.5978 315° West 400 460 32,000  Level Salt Lake Center
02:46PM 46.6028 -111.7119 316° Northwest 402 463 32,000  Level Salt Lake Center
02:47PM 46.6822 -111.8272 315° West 403 464 32,000  Level Salt Lake Center
02:48PM 46.7606 -111.9428 315° West 402 463 32,000  Level Salt Lake Center
02:49PM 46.8392 -112.0592 315° West 402 463 32,000  Level Salt Lake Center
02:50PM 46.9167 -112.1744 315° West 399 459 32,000  Level Salt Lake Center
02:51PM 47.0108 -112.3133 315° West 400 460 32,000  Level Salt Lake Center
02:52PM 47.0894 -112.4297 315° West 401 461 32,000  Level Salt Lake Center
02:53PM 47.1658 -112.5469 314° West 398 458 32,000  Level Salt Lake Center
02:54PM 47.2442 -112.6656 314° West 401 461 32,000 -660 Level Salt Lake Center
02:55PM 47.3239 -112.7861 314° West 408 470 30,700 -1,440 Descending Salt Lake Center
02:56PM 47.4064 -112.9119 314° West 423 487 29,100 -840 Descending Salt Lake Center
02:57PM 47.4944 -113.0431 315° West 424 488 29,000 -900 Descending Salt Lake Center
02:58PM 47.5722 -113.1611 314° West 409 471 27,300 -2,520 Descending Salt Lake Center
02:59PM 47.6633 -113.3047 313° West 402 463 23,900 -3,000 Descending Salt Lake Center
03:00PM 47.7386 -113.4214 314° West 396 456 21,100 -2,700 Descending Salt Lake Center
03:01PM 47.8119 -113.5367 313° West 389 448 18,400 -2,340 Descending Salt Lake Center
03:02PM 47.8833 -113.6483 314° West 379 436 16,300 -2,160 Descending Salt Lake Center
03:03PM 47.9514 -113.7558 313° West 365 420 14,000 -2,280 Descending Salt Lake Center
03:04PM 48.0175 -113.8597 314° West 355 409 11,600 -2,040 Descending Salt Lake Center
03:05PM 48.0869 -113.9786 311° West 333 383 9,900 -1,260 Descending Salt Lake Center
03:06PM 48.1303 -114.0597 309° West 282 325 9,000 -1,020 Descending Salt Lake Center
03:07PM 48.1697 -114.1350 308° West 252 290 7,800 -1,200 Descending Salt Lake Center
03:08PM 48.2044 -114.2075 306° West 233 268 6,600 -1,200 Descending Salt Lake Center